METAR|ÜBERSETZT|TAF
EDHK 260620Z 21005KT 180V240 CAVOK 21/15 Q1014
Login|Impressum|Kontakt



Anfahrt zum Luftsportverein Kiel

Aus Richtung Süden folgen Sie der Beschilderung "Olympia Zentrum". Auf der Bundesstraße B503 überqueren Sie die Holtenauer Hochbrücke mit Blick auf die Kanal-Schleusen. Anschließend folgen Sie der Beschilderung "Flughafen" (Ausfahrt Friedrichsort) und danach gleich wieder rechts... Nun stehen Sie auf dem Flughafengelände. Den Luftsportverein Kiel finden Sie in der großen Halle schräg links.
>Lageplan


Größere Kartenansicht